sensor_id;sensor_type;location;lat;lon;timestamp;P1;durP1;ratioP1;P2;durP2;ratioP2
67665;SDS011;54448;51.472;-2.574;2023-08-31T00:01:08;13.85;;;3.70;;
67665;SDS011;54448;51.472;-2.574;2023-08-31T00:03:34;17.15;;;4.47;;
67665;SDS011;54448;51.472;-2.574;2023-08-31T00:06:03;14.13;;;5.43;;
67665;SDS011;54448;51.472;-2.574;2023-08-31T00:08:29;12.82;;;4.72;;
67665;SDS011;54448;51.472;-2.574;2023-08-31T00:10:55;12.10;;;4.80;;
67665;SDS011;54448;51.472;-2.574;2023-08-31T00:13:22;15.68;;;5.32;;
67665;SDS011;54448;51.472;-2.574;2023-08-31T00:15:47;14.30;;;5.40;;
67665;SDS011;54448;51.472;-2.574;2023-08-31T00:18:13;15.98;;;4.95;;
67665;SDS011;54448;51.472;-2.574;2023-08-31T00:20:40;15.23;;;4.65;;
67665;SDS011;54448;51.472;-2.574;2023-08-31T00:23:05;15.48;;;4.35;;
67665;SDS011;54448;51.472;-2.574;2023-08-31T00:25:31;9.85;;;4.78;;
67665;SDS011;54448;51.472;-2.574;2023-08-31T00:27:56;14.93;;;5.25;;
67665;SDS011;54448;51.472;-2.574;2023-08-31T00:30:22;13.40;;;4.20;;
67665;SDS011;54448;51.472;-2.574;2023-08-31T00:32:50;14.63;;;5.32;;
67665;SDS011;54448;51.472;-2.574;2023-08-31T00:35:18;16.50;;;5.35;;
67665;SDS011;54448;51.472;-2.574;2023-08-31T00:37:43;13.48;;;5.00;;
67665;SDS011;54448;51.472;-2.574;2023-08-31T00:40:10;16.60;;;5.15;;
67665;SDS011;54448;51.472;-2.574;2023-08-31T00:42:39;14.38;;;5.35;;
67665;SDS011;54448;51.472;-2.574;2023-08-31T00:45:04;14.50;;;4.65;;
67665;SDS011;54448;51.472;-2.574;2023-08-31T00:47:30;10.60;;;4.35;;
67665;SDS011;54448;51.472;-2.574;2023-08-31T00:49:56;13.60;;;4.85;;
67665;SDS011;54448;51.472;-2.574;2023-08-31T00:52:21;18.13;;;5.05;;
67665;SDS011;54448;51.472;-2.574;2023-08-31T00:54:47;18.98;;;5.07;;
67665;SDS011;54448;51.472;-2.574;2023-08-31T00:57:14;14.30;;;4.97;;
67665;SDS011;54448;51.472;-2.574;2023-08-31T00:59:40;22.48;;;4.85;;
67665;SDS011;54448;51.472;-2.574;2023-08-31T01:02:07;13.35;;;4.72;;
67665;SDS011;54448;51.472;-2.574;2023-08-31T01:04:41;14.70;;;5.40;;
67665;SDS011;54448;51.472;-2.574;2023-08-31T01:07:21;13.98;;;4.50;;
67665;SDS011;54448;51.472;-2.574;2023-08-31T01:12:35;16.85;;;4.70;;
67665;SDS011;54448;51.472;-2.574;2023-08-31T01:15:06;14.93;;;5.00;;
67665;SDS011;54448;51.472;-2.574;2023-08-31T01:17:37;13.00;;;4.18;;
67665;SDS011;54448;51.472;-2.574;2023-08-31T01:20:07;12.80;;;4.55;;
67665;SDS011;54448;51.472;-2.574;2023-08-31T01:22:45;13.27;;;4.15;;
67665;SDS011;54448;51.472;-2.574;2023-08-31T01:25:13;16.13;;;4.80;;
67665;SDS011;54448;51.472;-2.574;2023-08-31T01:27:39;11.70;;;4.68;;
67665;SDS011;54448;51.472;-2.574;2023-08-31T01:30:05;15.70;;;4.65;;
67665;SDS011;54448;51.472;-2.574;2023-08-31T01:32:31;13.32;;;4.15;;
67665;SDS011;54448;51.472;-2.574;2023-08-31T01:34:57;15.75;;;4.65;;
67665;SDS011;54448;51.472;-2.574;2023-08-31T01:40:14;13.88;;;5.55;;
67665;SDS011;54448;51.472;-2.574;2023-08-31T01:42:43;16.95;;;4.90;;
67665;SDS011;54448;51.472;-2.574;2023-08-31T01:45:10;12.05;;;4.82;;
67665;SDS011;54448;51.472;-2.574;2023-08-31T01:47:36;12.60;;;5.20;;
67665;SDS011;54448;51.472;-2.574;2023-08-31T01:50:01;13.23;;;5.45;;
67665;SDS011;54448;51.472;-2.574;2023-08-31T01:52:27;14.35;;;4.57;;
67665;SDS011;54448;51.472;-2.574;2023-08-31T01:54:52;12.20;;;4.53;;
67665;SDS011;54448;51.472;-2.574;2023-08-31T01:57:17;13.32;;;5.05;;
67665;SDS011;54448;51.472;-2.574;2023-08-31T01:59:43;12.15;;;4.60;;
67665;SDS011;54448;51.472;-2.574;2023-08-31T02:02:08;8.52;;;4.03;;
67665;SDS011;54448;51.472;-2.574;2023-08-31T02:04:33;10.48;;;4.25;;
67665;SDS011;54448;51.472;-2.574;2023-08-31T02:06:59;10.00;;;4.75;;
67665;SDS011;54448;51.472;-2.574;2023-08-31T02:09:24;22.48;;;5.03;;
67665;SDS011;54448;51.472;-2.574;2023-08-31T02:11:49;10.40;;;4.40;;
67665;SDS011;54448;51.472;-2.574;2023-08-31T02:14:15;10.13;;;4.63;;
67665;SDS011;54448;51.472;-2.574;2023-08-31T02:16:40;14.18;;;4.95;;
67665;SDS011;54448;51.472;-2.574;2023-08-31T02:19:05;10.35;;;4.10;;
67665;SDS011;54448;51.472;-2.574;2023-08-31T02:21:31;12.25;;;5.10;;
67665;SDS011;54448;51.472;-2.574;2023-08-31T02:23:56;16.15;;;4.63;;
67665;SDS011;54448;51.472;-2.574;2023-08-31T02:26:21;14.40;;;5.10;;
67665;SDS011;54448;51.472;-2.574;2023-08-31T02:28:47;15.93;;;5.32;;
67665;SDS011;54448;51.472;-2.574;2023-08-31T02:31:13;10.75;;;4.70;;
67665;SDS011;54448;51.472;-2.574;2023-08-31T02:33:38;11.48;;;4.50;;
67665;SDS011;54448;51.472;-2.574;2023-08-31T02:36:04;13.43;;;4.57;;
67665;SDS011;54448;51.472;-2.574;2023-08-31T02:38:29;16.60;;;4.88;;
67665;SDS011;54448;51.472;-2.574;2023-08-31T02:40:54;13.68;;;4.70;;
67665;SDS011;54448;51.472;-2.574;2023-08-31T02:43:20;14.68;;;4.05;;
67665;SDS011;54448;51.472;-2.574;2023-08-31T02:45:45;14.02;;;4.50;;
67665;SDS011;54448;51.472;-2.574;2023-08-31T02:48:10;17.02;;;4.70;;
67665;SDS011;54448;51.472;-2.574;2023-08-31T02:50:36;15.50;;;4.68;;
67665;SDS011;54448;51.472;-2.574;2023-08-31T02:53:02;16.67;;;4.80;;
67665;SDS011;54448;51.472;-2.574;2023-08-31T02:55:28;15.43;;;5.00;;
67665;SDS011;54448;51.472;-2.574;2023-08-31T02:57:54;13.63;;;4.90;;
67665;SDS011;54448;51.472;-2.574;2023-08-31T03:00:19;12.77;;;4.65;;
67665;SDS011;54448;51.472;-2.574;2023-08-31T03:02:47;21.65;;;5.50;;
67665;SDS011;54448;51.472;-2.574;2023-08-31T03:05:17;14.45;;;4.93;;
67665;SDS011;54448;51.472;-2.574;2023-08-31T03:07:43;13.63;;;4.18;;
67665;SDS011;54448;51.472;-2.574;2023-08-31T03:10:08;12.85;;;4.90;;
67665;SDS011;54448;51.472;-2.574;2023-08-31T03:12:34;16.10;;;4.85;;
67665;SDS011;54448;51.472;-2.574;2023-08-31T03:14:59;17.25;;;4.85;;
67665;SDS011;54448;51.472;-2.574;2023-08-31T03:17:25;14.00;;;4.97;;
67665;SDS011;54448;51.472;-2.574;2023-08-31T03:19:50;12.65;;;4.47;;
67665;SDS011;54448;51.472;-2.574;2023-08-31T03:22:15;15.68;;;4.50;;
67665;SDS011;54448;51.472;-2.574;2023-08-31T03:24:41;16.38;;;4.30;;
67665;SDS011;54448;51.472;-2.574;2023-08-31T03:27:06;12.02;;;3.95;;
67665;SDS011;54448;51.472;-2.574;2023-08-31T03:29:32;11.63;;;4.25;;
67665;SDS011;54448;51.472;-2.574;2023-08-31T03:31:59;14.57;;;4.85;;
67665;SDS011;54448;51.472;-2.574;2023-08-31T03:34:28;12.75;;;4.50;;
67665;SDS011;54448;51.472;-2.574;2023-08-31T03:36:54;26.52;;;5.10;;
67665;SDS011;54448;51.472;-2.574;2023-08-31T03:39:19;13.60;;;4.40;;
67665;SDS011;54448;51.472;-2.574;2023-08-31T03:41:45;11.70;;;4.38;;
67665;SDS011;54448;51.472;-2.574;2023-08-31T03:44:10;23.73;;;4.75;;
67665;SDS011;54448;51.472;-2.574;2023-08-31T03:46:35;13.95;;;4.45;;
67665;SDS011;54448;51.472;-2.574;2023-08-31T03:49:01;13.48;;;4.38;;
67665;SDS011;54448;51.472;-2.574;2023-08-31T03:51:26;13.43;;;4.45;;
67665;SDS011;54448;51.472;-2.574;2023-08-31T03:53:51;16.27;;;4.00;;
67665;SDS011;54448;51.472;-2.574;2023-08-31T03:56:19;15.60;;;4.35;;
67665;SDS011;54448;51.472;-2.574;2023-08-31T03:58:44;9.23;;;4.07;;
67665;SDS011;54448;51.472;-2.574;2023-08-31T04:01:10;21.48;;;4.40;;
67665;SDS011;54448;51.472;-2.574;2023-08-31T04:03:35;12.40;;;3.97;;
67665;SDS011;54448;51.472;-2.574;2023-08-31T04:06:01;15.25;;;3.97;;
67665;SDS011;54448;51.472;-2.574;2023-08-31T04:08:26;11.90;;;3.42;;
67665;SDS011;54448;51.472;-2.574;2023-08-31T04:10:52;11.43;;;4.07;;
67665;SDS011;54448;51.472;-2.574;2023-08-31T04:13:17;18.58;;;5.03;;
67665;SDS011;54448;51.472;-2.574;2023-08-31T04:15:43;14.38;;;4.20;;
67665;SDS011;54448;51.472;-2.574;2023-08-31T04:18:08;13.88;;;4.13;;
67665;SDS011;54448;51.472;-2.574;2023-08-31T04:20:33;11.52;;;3.92;;
67665;SDS011;54448;51.472;-2.574;2023-08-31T04:22:59;9.52;;;3.40;;
67665;SDS011;54448;51.472;-2.574;2023-08-31T04:25:24;12.55;;;3.70;;
67665;SDS011;54448;51.472;-2.574;2023-08-31T04:27:49;14.18;;;4.60;;
67665;SDS011;54448;51.472;-2.574;2023-08-31T04:30:15;9.30;;;3.38;;
67665;SDS011;54448;51.472;-2.574;2023-08-31T04:32:40;8.65;;;3.40;;
67665;SDS011;54448;51.472;-2.574;2023-08-31T04:35:06;10.38;;;3.88;;
67665;SDS011;54448;51.472;-2.574;2023-08-31T04:37:32;16.85;;;4.40;;
67665;SDS011;54448;51.472;-2.574;2023-08-31T04:39:58;13.48;;;3.70;;
67665;SDS011;54448;51.472;-2.574;2023-08-31T04:42:23;13.27;;;3.80;;
67665;SDS011;54448;51.472;-2.574;2023-08-31T04:44:49;10.50;;;4.18;;
67665;SDS011;54448;51.472;-2.574;2023-08-31T04:47:14;17.30;;;4.50;;
67665;SDS011;54448;51.472;-2.574;2023-08-31T04:49:40;9.93;;;3.58;;
67665;SDS011;54448;51.472;-2.574;2023-08-31T04:52:05;9.05;;;3.30;;
67665;SDS011;54448;51.472;-2.574;2023-08-31T04:54:31;11.05;;;3.58;;
67665;SDS011;54448;51.472;-2.574;2023-08-31T04:56:56;11.00;;;3.85;;
67665;SDS011;54448;51.472;-2.574;2023-08-31T04:59:21;13.35;;;4.10;;
67665;SDS011;54448;51.472;-2.574;2023-08-31T05:01:46;17.88;;;3.92;;
67665;SDS011;54448;51.472;-2.574;2023-08-31T05:04:12;8.32;;;3.50;;
67665;SDS011;54448;51.472;-2.574;2023-08-31T05:06:37;8.48;;;3.22;;
67665;SDS011;54448;51.472;-2.574;2023-08-31T05:09:03;7.68;;;3.28;;
67665;SDS011;54448;51.472;-2.574;2023-08-31T05:11:29;10.98;;;3.03;;
67665;SDS011;54448;51.472;-2.574;2023-08-31T05:13:54;8.77;;;3.30;;
67665;SDS011;54448;51.472;-2.574;2023-08-31T05:16:19;8.35;;;2.95;;
67665;SDS011;54448;51.472;-2.574;2023-08-31T05:18:45;10.73;;;3.22;;
67665;SDS011;54448;51.472;-2.574;2023-08-31T05:21:10;14.13;;;3.40;;
67665;SDS011;54448;51.472;-2.574;2023-08-31T05:23:35;10.55;;;3.72;;
67665;SDS011;54448;51.472;-2.574;2023-08-31T05:26:01;11.15;;;3.53;;
67665;SDS011;54448;51.472;-2.574;2023-08-31T05:28:26;9.20;;;3.45;;
67665;SDS011;54448;51.472;-2.574;2023-08-31T05:30:53;8.63;;;3.17;;
67665;SDS011;54448;51.472;-2.574;2023-08-31T05:33:20;10.27;;;3.05;;
67665;SDS011;54448;51.472;-2.574;2023-08-31T05:35:47;8.90;;;3.10;;
67665;SDS011;54448;51.472;-2.574;2023-08-31T05:38:13;6.38;;;3.10;;
67665;SDS011;54448;51.472;-2.574;2023-08-31T05:40:38;7.82;;;3.17;;
67665;SDS011;54448;51.472;-2.574;2023-08-31T05:43:04;8.43;;;2.83;;
67665;SDS011;54448;51.472;-2.574;2023-08-31T05:45:33;10.98;;;3.20;;
67665;SDS011;54448;51.472;-2.574;2023-08-31T05:47:59;10.05;;;3.03;;
67665;SDS011;54448;51.472;-2.574;2023-08-31T05:50:25;9.90;;;2.97;;
67665;SDS011;54448;51.472;-2.574;2023-08-31T05:52:51;13.52;;;3.30;;
67665;SDS011;54448;51.472;-2.574;2023-08-31T05:55:16;11.27;;;2.90;;
67665;SDS011;54448;51.472;-2.574;2023-08-31T05:57:42;9.38;;;3.30;;
67665;SDS011;54448;51.472;-2.574;2023-08-31T06:00:07;16.40;;;4.63;;
67665;SDS011;54448;51.472;-2.574;2023-08-31T06:02:33;11.93;;;3.42;;
67665;SDS011;54448;51.472;-2.574;2023-08-31T06:05:00;7.30;;;3.00;;
67665;SDS011;54448;51.472;-2.574;2023-08-31T06:07:26;7.90;;;3.22;;
67665;SDS011;54448;51.472;-2.574;2023-08-31T06:09:51;8.40;;;3.38;;
67665;SDS011;54448;51.472;-2.574;2023-08-31T06:12:16;14.45;;;3.70;;
67665;SDS011;54448;51.472;-2.574;2023-08-31T06:14:42;8.60;;;3.55;;
67665;SDS011;54448;51.472;-2.574;2023-08-31T06:17:07;17.13;;;3.45;;
67665;SDS011;54448;51.472;-2.574;2023-08-31T06:19:33;11.15;;;3.45;;
67665;SDS011;54448;51.472;-2.574;2023-08-31T06:21:59;16.08;;;3.70;;
67665;SDS011;54448;51.472;-2.574;2023-08-31T06:24:24;7.80;;;3.22;;
67665;SDS011;54448;51.472;-2.574;2023-08-31T06:26:49;12.38;;;3.50;;
67665;SDS011;54448;51.472;-2.574;2023-08-31T06:29:15;7.75;;;3.10;;
67665;SDS011;54448;51.472;-2.574;2023-08-31T06:31:40;12.70;;;3.50;;
67665;SDS011;54448;51.472;-2.574;2023-08-31T06:34:05;11.20;;;4.32;;
67665;SDS011;54448;51.472;-2.574;2023-08-31T06:36:31;7.80;;;3.63;;
67665;SDS011;54448;51.472;-2.574;2023-08-31T06:38:56;8.70;;;3.17;;
67665;SDS011;54448;51.472;-2.574;2023-08-31T06:41:21;7.00;;;2.78;;
67665;SDS011;54448;51.472;-2.574;2023-08-31T06:43:47;8.95;;;3.58;;
67665;SDS011;54448;51.472;-2.574;2023-08-31T06:46:12;12.50;;;3.72;;
67665;SDS011;54448;51.472;-2.574;2023-08-31T06:48:37;10.75;;;3.25;;
67665;SDS011;54448;51.472;-2.574;2023-08-31T06:51:03;10.57;;;3.20;;
67665;SDS011;54448;51.472;-2.574;2023-08-31T06:53:29;13.63;;;3.40;;
67665;SDS011;54448;51.472;-2.574;2023-08-31T06:55:56;9.07;;;3.28;;
67665;SDS011;54448;51.472;-2.574;2023-08-31T06:58:21;9.93;;;2.97;;
67665;SDS011;54448;51.472;-2.574;2023-08-31T07:00:47;11.77;;;3.95;;
67665;SDS011;54448;51.472;-2.574;2023-08-31T07:03:13;10.77;;;3.25;;
67665;SDS011;54448;51.472;-2.574;2023-08-31T07:05:41;13.15;;;4.00;;
67665;SDS011;54448;51.472;-2.574;2023-08-31T07:08:07;17.63;;;8.15;;
67665;SDS011;54448;51.472;-2.574;2023-08-31T07:10:33;12.15;;;4.05;;
67665;SDS011;54448;51.472;-2.574;2023-08-31T07:13:01;9.38;;;3.50;;
67665;SDS011;54448;51.472;-2.574;2023-08-31T07:15:26;11.75;;;3.10;;
67665;SDS011;54448;51.472;-2.574;2023-08-31T07:17:52;14.18;;;4.20;;
67665;SDS011;54448;51.472;-2.574;2023-08-31T07:20:17;11.70;;;3.45;;
67665;SDS011;54448;51.472;-2.574;2023-08-31T07:22:42;12.55;;;4.15;;
67665;SDS011;54448;51.472;-2.574;2023-08-31T07:25:08;13.40;;;5.10;;
67665;SDS011;54448;51.472;-2.574;2023-08-31T07:27:33;7.90;;;2.90;;
67665;SDS011;54448;51.472;-2.574;2023-08-31T07:29:59;11.23;;;3.67;;
67665;SDS011;54448;51.472;-2.574;2023-08-31T07:32:24;7.38;;;3.50;;
67665;SDS011;54448;51.472;-2.574;2023-08-31T07:34:49;10.75;;;3.30;;
67665;SDS011;54448;51.472;-2.574;2023-08-31T07:37:15;10.48;;;3.33;;
67665;SDS011;54448;51.472;-2.574;2023-08-31T07:39:40;11.48;;;3.22;;
67665;SDS011;54448;51.472;-2.574;2023-08-31T07:42:05;12.18;;;3.42;;
67665;SDS011;54448;51.472;-2.574;2023-08-31T07:44:31;8.63;;;3.20;;
67665;SDS011;54448;51.472;-2.574;2023-08-31T07:46:56;8.45;;;3.47;;
67665;SDS011;54448;51.472;-2.574;2023-08-31T07:49:22;12.40;;;3.10;;
67665;SDS011;54448;51.472;-2.574;2023-08-31T07:51:47;6.47;;;2.72;;
67665;SDS011;54448;51.472;-2.574;2023-08-31T07:54:18;9.95;;;2.75;;
67665;SDS011;54448;51.472;-2.574;2023-08-31T07:56:44;9.77;;;2.65;;
67665;SDS011;54448;51.472;-2.574;2023-08-31T07:59:10;9.00;;;2.70;;
67665;SDS011;54448;51.472;-2.574;2023-08-31T08:01:35;15.82;;;3.42;;
67665;SDS011;54448;51.472;-2.574;2023-08-31T08:04:01;12.40;;;3.53;;
67665;SDS011;54448;51.472;-2.574;2023-08-31T08:06:26;12.45;;;3.28;;
67665;SDS011;54448;51.472;-2.574;2023-08-31T08:08:52;7.82;;;3.22;;
67665;SDS011;54448;51.472;-2.574;2023-08-31T08:11:17;13.30;;;4.00;;
67665;SDS011;54448;51.472;-2.574;2023-08-31T08:13:43;17.08;;;4.30;;
67665;SDS011;54448;51.472;-2.574;2023-08-31T08:16:08;11.60;;;4.43;;
67665;SDS011;54448;51.472;-2.574;2023-08-31T08:18:34;17.50;;;4.20;;
67665;SDS011;54448;51.472;-2.574;2023-08-31T08:20:59;27.92;;;9.95;;
67665;SDS011;54448;51.472;-2.574;2023-08-31T08:23:24;13.05;;;5.13;;
67665;SDS011;54448;51.472;-2.574;2023-08-31T08:25:50;12.77;;;3.80;;
67665;SDS011;54448;51.472;-2.574;2023-08-31T08:28:15;13.27;;;4.90;;
67665;SDS011;54448;51.472;-2.574;2023-08-31T08:30:40;14.35;;;4.38;;
67665;SDS011;54448;51.472;-2.574;2023-08-31T08:33:08;11.40;;;3.85;;
67665;SDS011;54448;51.472;-2.574;2023-08-31T08:35:34;11.82;;;3.58;;
67665;SDS011;54448;51.472;-2.574;2023-08-31T08:37:59;11.48;;;3.78;;
67665;SDS011;54448;51.472;-2.574;2023-08-31T08:40:25;11.65;;;3.67;;
67665;SDS011;54448;51.472;-2.574;2023-08-31T08:42:50;17.80;;;4.35;;
67665;SDS011;54448;51.472;-2.574;2023-08-31T08:45:18;15.20;;;5.30;;
67665;SDS011;54448;51.472;-2.574;2023-08-31T08:47:45;11.15;;;4.40;;
67665;SDS011;54448;51.472;-2.574;2023-08-31T08:50:11;13.57;;;3.67;;
67665;SDS011;54448;51.472;-2.574;2023-08-31T08:52:38;17.50;;;3.50;;
67665;SDS011;54448;51.472;-2.574;2023-08-31T08:55:04;15.02;;;4.10;;
67665;SDS011;54448;51.472;-2.574;2023-08-31T08:57:30;14.68;;;3.30;;
67665;SDS011;54448;51.472;-2.574;2023-08-31T08:59:57;16.23;;;3.00;;
67665;SDS011;54448;51.472;-2.574;2023-08-31T09:02:23;10.95;;;3.20;;
67665;SDS011;54448;51.472;-2.574;2023-08-31T09:04:48;8.60;;;3.28;;
67665;SDS011;54448;51.472;-2.574;2023-08-31T09:07:17;16.90;;;3.25;;
67665;SDS011;54448;51.472;-2.574;2023-08-31T09:09:50;13.15;;;3.08;;
67665;SDS011;54448;51.472;-2.574;2023-08-31T09:12:17;8.85;;;3.15;;
67665;SDS011;54448;51.472;-2.574;2023-08-31T09:14:43;7.63;;;2.88;;
67665;SDS011;54448;51.472;-2.574;2023-08-31T09:17:22;11.98;;;2.90;;
67665;SDS011;54448;51.472;-2.574;2023-08-31T09:19:57;13.23;;;3.08;;
67665;SDS011;54448;51.472;-2.574;2023-08-31T09:22:28;10.68;;;2.75;;
67665;SDS011;54448;51.472;-2.574;2023-08-31T09:24:54;10.95;;;2.92;;
67665;SDS011;54448;51.472;-2.574;2023-08-31T09:27:19;11.07;;;3.03;;
67665;SDS011;54448;51.472;-2.574;2023-08-31T09:29:45;10.73;;;2.90;;
67665;SDS011;54448;51.472;-2.574;2023-08-31T09:32:15;9.50;;;3.25;;
67665;SDS011;54448;51.472;-2.574;2023-08-31T09:34:42;17.02;;;2.60;;
67665;SDS011;54448;51.472;-2.574;2023-08-31T09:37:08;10.38;;;3.03;;
67665;SDS011;54448;51.472;-2.574;2023-08-31T09:39:37;10.00;;;2.67;;
67665;SDS011;54448;51.472;-2.574;2023-08-31T09:42:04;12.40;;;3.00;;
67665;SDS011;54448;51.472;-2.574;2023-08-31T09:44:29;13.63;;;3.08;;
67665;SDS011;54448;51.472;-2.574;2023-08-31T09:46:55;13.55;;;2.63;;
67665;SDS011;54448;51.472;-2.574;2023-08-31T09:49:21;11.75;;;3.03;;
67665;SDS011;54448;51.472;-2.574;2023-08-31T09:51:47;8.35;;;2.28;;
67665;SDS011;54448;51.472;-2.574;2023-08-31T09:54:14;4.60;;;1.92;;
67665;SDS011;54448;51.472;-2.574;2023-08-31T09:56:44;11.65;;;2.90;;
67665;SDS011;54448;51.472;-2.574;2023-08-31T09:59:11;12.68;;;2.38;;
67665;SDS011;54448;51.472;-2.574;2023-08-31T10:01:39;13.80;;;2.40;;
67665;SDS011;54448;51.472;-2.574;2023-08-31T10:04:05;14.80;;;2.72;;
67665;SDS011;54448;51.472;-2.574;2023-08-31T10:06:33;6.93;;;2.35;;
67665;SDS011;54448;51.472;-2.574;2023-08-31T10:08:59;11.88;;;2.20;;
67665;SDS011;54448;51.472;-2.574;2023-08-31T10:11:25;11.10;;;3.25;;
67665;SDS011;54448;51.472;-2.574;2023-08-31T10:13:51;11.55;;;2.90;;
67665;SDS011;54448;51.472;-2.574;2023-08-31T10:16:19;13.88;;;2.97;;
67665;SDS011;54448;51.472;-2.574;2023-08-31T10:18:45;11.10;;;2.50;;
67665;SDS011;54448;51.472;-2.574;2023-08-31T10:21:10;10.35;;;2.63;;
67665;SDS011;54448;51.472;-2.574;2023-08-31T10:23:35;8.60;;;2.47;;
67665;SDS011;54448;51.472;-2.574;2023-08-31T10:26:01;5.50;;;2.20;;
67665;SDS011;54448;51.472;-2.574;2023-08-31T10:28:28;11.68;;;2.33;;
67665;SDS011;54448;51.472;-2.574;2023-08-31T10:31:00;8.70;;;2.90;;
67665;SDS011;54448;51.472;-2.574;2023-08-31T10:34:11;6.10;;;1.77;;
67665;SDS011;54448;51.472;-2.574;2023-08-31T10:36:22;14.40;;;4.43;;
67665;SDS011;54448;51.472;-2.574;2023-08-31T10:39:00;9.85;;;2.40;;
67665;SDS011;54448;51.472;-2.574;2023-08-31T10:41:36;8.38;;;2.92;;
67665;SDS011;54448;51.472;-2.574;2023-08-31T10:44:02;9.77;;;2.28;;
67665;SDS011;54448;51.472;-2.574;2023-08-31T10:46:43;6.05;;;2.17;;
67665;SDS011;54448;51.472;-2.574;2023-08-31T10:51:34;7.60;;;2.95;;
67665;SDS011;54448;51.472;-2.574;2023-08-31T10:54:11;10.68;;;2.60;;
67665;SDS011;54448;51.472;-2.574;2023-08-31T10:57:13;10.48;;;2.88;;
67665;SDS011;54448;51.472;-2.574;2023-08-31T10:59:45;7.20;;;2.67;;
67665;SDS011;54448;51.472;-2.574;2023-08-31T11:05:16;7.53;;;2.20;;
67665;SDS011;54448;51.472;-2.574;2023-08-31T11:07:43;8.60;;;2.53;;
67665;SDS011;54448;51.472;-2.574;2023-08-31T11:10:19;10.38;;;3.25;;
67665;SDS011;54448;51.472;-2.574;2023-08-31T11:12:55;7.07;;;1.95;;
67665;SDS011;54448;51.472;-2.574;2023-08-31T11:15:25;9.27;;;2.50;;
67665;SDS011;54448;51.472;-2.574;2023-08-31T11:17:51;9.55;;;2.50;;
67665;SDS011;54448;51.472;-2.574;2023-08-31T11:20:18;8.00;;;2.75;;
67665;SDS011;54448;51.472;-2.574;2023-08-31T11:22:45;9.30;;;3.17;;
67665;SDS011;54448;51.472;-2.574;2023-08-31T11:25:14;11.32;;;2.80;;
67665;SDS011;54448;51.472;-2.574;2023-08-31T11:27:39;5.03;;;2.30;;
67665;SDS011;54448;51.472;-2.574;2023-08-31T11:30:14;6.90;;;2.53;;
67665;SDS011;54448;51.472;-2.574;2023-08-31T11:32:50;8.90;;;2.85;;
67665;SDS011;54448;51.472;-2.574;2023-08-31T11:35:16;7.80;;;2.88;;
67665;SDS011;54448;51.472;-2.574;2023-08-31T11:37:45;8.63;;;3.55;;
67665;SDS011;54448;51.472;-2.574;2023-08-31T11:40:14;9.85;;;3.42;;
67665;SDS011;54448;51.472;-2.574;2023-08-31T11:42:39;7.28;;;3.00;;
67665;SDS011;54448;51.472;-2.574;2023-08-31T11:45:05;7.88;;;2.20;;
67665;SDS011;54448;51.472;-2.574;2023-08-31T11:47:31;7.15;;;2.55;;
67665;SDS011;54448;51.472;-2.574;2023-08-31T11:49:57;6.80;;;2.20;;
67665;SDS011;54448;51.472;-2.574;2023-08-31T11:52:23;8.35;;;2.83;;
67665;SDS011;54448;51.472;-2.574;2023-08-31T11:54:49;6.30;;;2.35;;
67665;SDS011;54448;51.472;-2.574;2023-08-31T11:57:17;8.80;;;2.55;;
67665;SDS011;54448;51.472;-2.574;2023-08-31T11:59:42;8.07;;;2.50;;
67665;SDS011;54448;51.472;-2.574;2023-08-31T12:02:08;4.75;;;1.70;;
67665;SDS011;54448;51.472;-2.574;2023-08-31T12:04:41;9.20;;;2.15;;
67665;SDS011;54448;51.472;-2.574;2023-08-31T12:07:08;5.93;;;2.10;;
67665;SDS011;54448;51.472;-2.574;2023-08-31T12:09:33;7.30;;;2.25;;
67665;SDS011;54448;51.472;-2.574;2023-08-31T12:11:59;6.70;;;2.10;;
67665;SDS011;54448;51.472;-2.574;2023-08-31T12:14:26;7.13;;;2.60;;
67665;SDS011;54448;51.472;-2.574;2023-08-31T12:16:53;7.07;;;2.25;;
67665;SDS011;54448;51.472;-2.574;2023-08-31T12:19:28;6.13;;;2.30;;
67665;SDS011;54448;51.472;-2.574;2023-08-31T12:21:57;5.57;;;1.83;;
67665;SDS011;54448;51.472;-2.574;2023-08-31T12:24:23;3.75;;;1.92;;
67665;SDS011;54448;51.472;-2.574;2023-08-31T12:26:49;4.10;;;1.60;;
67665;SDS011;54448;51.472;-2.574;2023-08-31T12:29:15;5.32;;;1.77;;
67665;SDS011;54448;51.472;-2.574;2023-08-31T12:31:41;3.63;;;1.85;;
67665;SDS011;54448;51.472;-2.574;2023-08-31T12:34:06;6.78;;;1.90;;
67665;SDS011;54448;51.472;-2.574;2023-08-31T12:36:35;6.07;;;2.10;;
67665;SDS011;54448;51.472;-2.574;2023-08-31T12:39:06;6.05;;;2.70;;
67665;SDS011;54448;51.472;-2.574;2023-08-31T12:41:37;5.28;;;2.10;;
67665;SDS011;54448;51.472;-2.574;2023-08-31T12:44:03;6.15;;;1.70;;
67665;SDS011;54448;51.472;-2.574;2023-08-31T12:46:29;4.13;;;2.00;;
67665;SDS011;54448;51.472;-2.574;2023-08-31T12:48:54;8.48;;;2.40;;
67665;SDS011;54448;51.472;-2.574;2023-08-31T12:51:20;6.07;;;2.00;;
67665;SDS011;54448;51.472;-2.574;2023-08-31T12:53:45;4.93;;;2.20;;
67665;SDS011;54448;51.472;-2.574;2023-08-31T12:56:11;6.63;;;2.65;;
67665;SDS011;54448;51.472;-2.574;2023-08-31T12:58:37;5.07;;;2.60;;
67665;SDS011;54448;51.472;-2.574;2023-08-31T13:01:02;5.78;;;2.28;;
67665;SDS011;54448;51.472;-2.574;2023-08-31T13:03:28;5.80;;;2.40;;
67665;SDS011;54448;51.472;-2.574;2023-08-31T13:05:53;4.25;;;2.50;;
67665;SDS011;54448;51.472;-2.574;2023-08-31T13:08:19;8.68;;;2.63;;
67665;SDS011;54448;51.472;-2.574;2023-08-31T13:10:50;6.45;;;2.65;;
67665;SDS011;54448;51.472;-2.574;2023-08-31T13:13:19;5.25;;;2.50;;
67665;SDS011;54448;51.472;-2.574;2023-08-31T13:15:46;6.10;;;2.88;;
67665;SDS011;54448;51.472;-2.574;2023-08-31T13:18:14;7.45;;;2.85;;
67665;SDS011;54448;51.472;-2.574;2023-08-31T13:20:40;7.25;;;3.05;;
67665;SDS011;54448;51.472;-2.574;2023-08-31T13:23:06;8.07;;;2.83;;
67665;SDS011;54448;51.472;-2.574;2023-08-31T13:25:31;7.43;;;3.05;;
67665;SDS011;54448;51.472;-2.574;2023-08-31T13:27:57;5.65;;;2.50;;
67665;SDS011;54448;51.472;-2.574;2023-08-31T13:30:22;8.30;;;2.92;;
67665;SDS011;54448;51.472;-2.574;2023-08-31T13:32:48;8.27;;;3.55;;
67665;SDS011;54448;51.472;-2.574;2023-08-31T13:35:13;10.10;;;3.53;;
67665;SDS011;54448;51.472;-2.574;2023-08-31T13:37:38;11.05;;;3.17;;
67665;SDS011;54448;51.472;-2.574;2023-08-31T13:40:04;7.43;;;3.25;;
67665;SDS011;54448;51.472;-2.574;2023-08-31T13:42:36;7.43;;;3.30;;
67665;SDS011;54448;51.472;-2.574;2023-08-31T13:45:03;8.48;;;3.20;;
67665;SDS011;54448;51.472;-2.574;2023-08-31T13:47:32;7.95;;;2.80;;
67665;SDS011;54448;51.472;-2.574;2023-08-31T13:49:57;7.18;;;2.80;;
67665;SDS011;54448;51.472;-2.574;2023-08-31T13:52:23;6.53;;;2.92;;
67665;SDS011;54448;51.472;-2.574;2023-08-31T13:54:49;8.38;;;3.40;;
67665;SDS011;54448;51.472;-2.574;2023-08-31T13:57:15;4.05;;;2.58;;
67665;SDS011;54448;51.472;-2.574;2023-08-31T13:59:42;9.13;;;2.60;;
67665;SDS011;54448;51.472;-2.574;2023-08-31T14:02:08;6.13;;;3.00;;
67665;SDS011;54448;51.472;-2.574;2023-08-31T14:04:33;6.35;;;3.17;;
67665;SDS011;54448;51.472;-2.574;2023-08-31T14:06:59;9.38;;;3.05;;
67665;SDS011;54448;51.472;-2.574;2023-08-31T14:09:26;10.07;;;3.13;;
67665;SDS011;54448;51.472;-2.574;2023-08-31T14:11:51;7.93;;;3.13;;
67665;SDS011;54448;51.472;-2.574;2023-08-31T14:14:16;4.80;;;2.95;;
67665;SDS011;54448;51.472;-2.574;2023-08-31T14:16:42;5.80;;;3.00;;
67665;SDS011;54448;51.472;-2.574;2023-08-31T14:19:07;6.93;;;3.25;;
67665;SDS011;54448;51.472;-2.574;2023-08-31T14:21:33;8.38;;;3.42;;
67665;SDS011;54448;51.472;-2.574;2023-08-31T14:23:58;8.05;;;4.30;;
67665;SDS011;54448;51.472;-2.574;2023-08-31T14:26:24;8.93;;;3.83;;
67665;SDS011;54448;51.472;-2.574;2023-08-31T14:28:50;6.35;;;2.65;;
67665;SDS011;54448;51.472;-2.574;2023-08-31T14:31:16;6.50;;;2.90;;
67665;SDS011;54448;51.472;-2.574;2023-08-31T14:33:43;10.40;;;3.80;;